< Cyclone 197315 1985 Season Cyclone 198502 >
Cyclone 198501 (EMMA)
General InformationDetailed Track InformationTrack Information on Google MapsList of All Images || ResourceGoogle EarthGE AnimationAtom FeedGeoJSON
Detalied Best Track Wind (Time Zone = UTC)
Year Month Day Hour Lat. Long. Wind (kt) Gust (kt) Direc. of Major Storm Axis Radius of Major Storm Axis (nm) Radius of Minor Storm Axis (nm) Direc. of Major Gale Axis Radius of Major Gale Axis (nm) Radius of Minor Gale Axis (nm) Image
1984 12 3 18 -5.2 102.0 0 -1 symmetric - - symmetric - - Image
1984 12 4 00 -5.2 101.0 0 -1 symmetric - - symmetric - - Image
1984 12 4 06 -5.4 100.0 0 -1 symmetric - - symmetric - - Image
1984 12 4 12 -5.7 99.1 0 -1 symmetric - - symmetric - - Image
1984 12 4 18 -6.1 98.5 0 -1 symmetric - - symmetric - - Image
1984 12 5 00 -6.6 98.1 0 -1 symmetric - - symmetric - - Image
1984 12 5 06 -7.1 98.0 0 -1 symmetric - - symmetric - - Image
1984 12 5 12 -7.4 98.0 0 -1 symmetric - - symmetric - - Image
1984 12 5 18 -7.6 98.1 35 -1 symmetric - - symmetric - - Image
1984 12 6 00 -7.9 98.2 35 -1 symmetric - - symmetric - - Image
1984 12 6 06 -8.1 98.3 35 -1 symmetric - - symmetric - - Image
1984 12 6 12 -8.3 98.6 35 -1 symmetric - - symmetric - - Image
1984 12 6 18 -8.5 98.9 37 -1 symmetric - - symmetric - - Image
1984 12 7 00 -8.6 99.1 37 -1 symmetric - - symmetric - - Image
1984 12 7 06 -8.8 99.3 39 -1 symmetric - - symmetric - - Image
1984 12 7 12 -9.1 99.6 41 -1 symmetric - - symmetric - - Image
1984 12 7 18 -9.4 99.9 41 -1 symmetric - - symmetric - - Image
1984 12 8 00 -9.5 100.1 43 -1 symmetric - - symmetric - - Image
1984 12 8 06 -9.7 100.4 43 -1 symmetric - - symmetric - - Image
1984 12 8 12 -10.1 100.8 47 -1 symmetric - - symmetric - - Image
1984 12 8 18 -10.3 101.5 49 -1 symmetric - - symmetric - - Image
1984 12 9 00 -10.8 102.1 51 -1 symmetric - - symmetric - - Image
1984 12 9 06 -11.2 103.1 54 -1 symmetric - - symmetric - - Image
1984 12 9 12 -11.4 103.6 54 -1 symmetric - - symmetric - - Image
1984 12 9 18 -11.8 104.2 56 -1 symmetric - - symmetric - - Image
1984 12 10 00 -12.3 105.0 60 -1 symmetric - - symmetric - - Image
1984 12 10 06 -12.9 105.8 62 -1 symmetric - - symmetric - - Image
1984 12 10 12 -13.5 106.6 64 -1 symmetric - - symmetric - - Image
1984 12 10 18 -14.1 107.5 66 -1 symmetric - - symmetric - - Image
1984 12 11 00 -14.5 108.3 66 -1 symmetric - - symmetric - - Image
1984 12 11 06 -15.4 109.3 64 -1 symmetric - - symmetric - - Image
1984 12 11 12 -16.5 110.7 60 -1 symmetric - - symmetric - - Image
1984 12 11 15 -17.1 111.6 56 -1 symmetric - - symmetric - - Image
1984 12 11 18 -17.7 112.2 54 -1 symmetric - - symmetric - - Image
1984 12 11 21 -18.2 113.3 51 -1 symmetric - - symmetric - - Image
1984 12 12 00 -18.9 114.3 49 -1 symmetric - - symmetric - - Image
1984 12 12 03 -19.4 115.1 43 -1 symmetric - - symmetric - - Image
1984 12 12 06 -19.9 115.8 41 -1 symmetric - - symmetric - - Image
1984 12 12 09 -20.5 116.1 35 -1 symmetric - - symmetric - - Image
1984 12 12 12 -21.1 116.8 0 -1 symmetric - - symmetric - - Image
1984 12 12 15 -21.5 117.2 0 -1 symmetric - - symmetric - - Image
1984 12 12 18 -21.6 117.9 0 -1 symmetric - - symmetric - - Image
1984 12 13 00 -21.8 119.8 0 -1 symmetric - - symmetric - - Image
1984 12 13 06 -21.8 119.8 0 -1 symmetric - - symmetric - - Image
< Cyclone 197315 1985 Season Cyclone 198502 >

Help